sensor_id;sensor_type;location;lat;lon;timestamp;pressure;altitude;pressure_sealevel;temperature;humidity
34658;BME280;20865;43.312;27.152;2023-09-08T00:01:12;100857.03;;;25.82;34.82
34658;BME280;20865;43.312;27.152;2023-09-08T00:03:39;100850.70;;;25.81;34.86
34658;BME280;20865;43.312;27.152;2023-09-08T00:06:07;100847.68;;;25.79;34.72
34658;BME280;20865;43.312;27.152;2023-09-08T00:08:34;100848.83;;;25.82;35.01
34658;BME280;20865;43.312;27.152;2023-09-08T00:11:02;100849.19;;;25.83;35.04
34658;BME280;20865;43.312;27.152;2023-09-08T00:13:31;100849.94;;;25.85;35.00
34658;BME280;20865;43.312;27.152;2023-09-08T00:15:58;100856.01;;;25.88;34.91
34658;BME280;20865;43.312;27.152;2023-09-08T00:18:26;100852.77;;;25.89;35.07
34658;BME280;20865;43.312;27.152;2023-09-08T00:20:54;100849.67;;;25.88;35.19
34658;BME280;20865;43.312;27.152;2023-09-08T00:23:21;100850.03;;;25.89;35.05
34658;BME280;20865;43.312;27.152;2023-09-08T00:25:50;100843.44;;;25.92;35.02
34658;BME280;20865;43.312;27.152;2023-09-08T00:28:18;100847.90;;;25.93;35.01
34658;BME280;20865;43.312;27.152;2023-09-08T00:30:45;100850.03;;;25.89;34.97
34658;BME280;20865;43.312;27.152;2023-09-08T00:33:13;100842.18;;;25.90;35.00
34658;BME280;20865;43.312;27.152;2023-09-08T00:35:48;100839.94;;;25.95;34.86
34658;BME280;20865;43.312;27.152;2023-09-08T00:38:14;100837.80;;;25.99;35.03
34658;BME280;20865;43.312;27.152;2023-09-08T00:43:21;100829.08;;;25.99;34.97
34658;BME280;20865;43.312;27.152;2023-09-08T00:45:49;100833.19;;;25.99;35.08
34658;BME280;20865;43.312;27.152;2023-09-08T00:48:18;100822.86;;;25.97;35.32
34658;BME280;20865;43.312;27.152;2023-09-08T00:50:45;100824.12;;;25.99;35.33
34658;BME280;20865;43.312;27.152;2023-09-08T00:53:14;100827.36;;;25.98;35.33
34658;BME280;20865;43.312;27.152;2023-09-08T00:55:42;100830.30;;;26.01;35.25
34658;BME280;20865;43.312;27.152;2023-09-08T00:58:15;100824.73;;;25.97;35.21
34658;BME280;20865;43.312;27.152;2023-09-08T01:00:39;100824.98;;;25.99;35.28
34658;BME280;20865;43.312;27.152;2023-09-08T01:03:07;100817.03;;;25.96;35.09
34658;BME280;20865;43.312;27.152;2023-09-08T01:05:35;100815.41;;;25.94;34.93
34658;BME280;20865;43.312;27.152;2023-09-08T01:08:03;100821.28;;;25.95;35.28
34658;BME280;20865;43.312;27.152;2023-09-08T01:10:31;100822.65;;;25.95;35.32
34658;BME280;20865;43.312;27.152;2023-09-08T01:12:58;100816.28;;;25.94;35.19
34658;BME280;20865;43.312;27.152;2023-09-08T01:15:26;100820.39;;;25.94;35.30
34658;BME280;20865;43.312;27.152;2023-09-08T01:17:54;100815.20;;;25.91;35.28
34658;BME280;20865;43.312;27.152;2023-09-08T01:20:24;100823.02;;;25.90;35.44
34658;BME280;20865;43.312;27.152;2023-09-08T01:25:28;100823.41;;;25.91;35.34
34658;BME280;20865;43.312;27.152;2023-09-08T01:27:57;100827.73;;;26.14;35.16
34658;BME280;20865;43.312;27.152;2023-09-08T01:30:28;100825.41;;;26.10;35.19
34658;BME280;20865;43.312;27.152;2023-09-08T01:32:58;100826.30;;;25.78;35.63
34658;BME280;20865;43.312;27.152;2023-09-08T01:35:26;100828.54;;;25.73;35.75
34658;BME280;20865;43.312;27.152;2023-09-08T01:37:54;100829.95;;;25.68;35.90
34658;BME280;20865;43.312;27.152;2023-09-08T01:40:21;100829.84;;;25.63;36.12
34658;BME280;20865;43.312;27.152;2023-09-08T01:42:49;100830.22;;;25.59;36.14
34658;BME280;20865;43.312;27.152;2023-09-08T01:45:17;100835.69;;;25.59;36.24
34658;BME280;20865;43.312;27.152;2023-09-08T01:47:44;100835.22;;;25.59;36.20
34658;BME280;20865;43.312;27.152;2023-09-08T01:50:12;100836.45;;;25.55;36.31
34658;BME280;20865;43.312;27.152;2023-09-08T01:52:41;100838.92;;;25.58;36.50
34658;BME280;20865;43.312;27.152;2023-09-08T01:55:08;100836.30;;;25.62;36.40
34658;BME280;20865;43.312;27.152;2023-09-08T01:57:37;100833.30;;;25.65;36.57
34658;BME280;20865;43.312;27.152;2023-09-08T02:00:06;100834.31;;;25.64;36.61
34658;BME280;20865;43.312;27.152;2023-09-08T02:02:34;100832.69;;;25.68;36.42
34658;BME280;20865;43.312;27.152;2023-09-08T02:05:01;100834.05;;;25.68;36.46
34658;BME280;20865;43.312;27.152;2023-09-08T02:07:30;100830.31;;;25.69;36.46
34658;BME280;20865;43.312;27.152;2023-09-08T02:09:57;100843.23;;;25.72;36.46
34658;BME280;20865;43.312;27.152;2023-09-08T02:12:25;100833.14;;;25.73;36.56
34658;BME280;20865;43.312;27.152;2023-09-08T02:14:53;100838.88;;;25.70;36.50
34658;BME280;20865;43.312;27.152;2023-09-08T02:17:20;100839.12;;;25.72;36.58
34658;BME280;20865;43.312;27.152;2023-09-08T02:19:48;100837.86;;;25.76;36.61
34658;BME280;20865;43.312;27.152;2023-09-08T02:22:16;100850.31;;;25.75;36.54
34658;BME280;20865;43.312;27.152;2023-09-08T02:24:43;100842.71;;;25.78;36.62
34658;BME280;20865;43.312;27.152;2023-09-08T02:27:11;100845.20;;;25.76;36.42
34658;BME280;20865;43.312;27.152;2023-09-08T02:29:38;100841.09;;;25.76;36.44
34658;BME280;20865;43.312;27.152;2023-09-08T02:32:06;100842.47;;;25.76;36.70
34658;BME280;20865;43.312;27.152;2023-09-08T02:34:36;100844.48;;;25.74;36.49
34658;BME280;20865;43.312;27.152;2023-09-08T02:37:04;100842.97;;;25.75;36.61
34658;BME280;20865;43.312;27.152;2023-09-08T02:39:33;100847.33;;;25.72;36.51
34658;BME280;20865;43.312;27.152;2023-09-08T02:42:00;100843.59;;;25.73;36.58
34658;BME280;20865;43.312;27.152;2023-09-08T02:44:28;100844.74;;;25.71;36.48
34658;BME280;20865;43.312;27.152;2023-09-08T02:46:55;100845.50;;;25.67;36.64
34658;BME280;20865;43.312;27.152;2023-09-08T02:49:23;100839.78;;;25.64;36.59
34658;BME280;20865;43.312;27.152;2023-09-08T02:51:50;100837.66;;;25.62;36.57
34658;BME280;20865;43.312;27.152;2023-09-08T02:54:18;100843.64;;;25.62;36.58
34658;BME280;20865;43.312;27.152;2023-09-08T02:56:46;100843.79;;;25.55;36.36
34658;BME280;20865;43.312;27.152;2023-09-08T02:59:13;100833.50;;;25.47;36.28
34658;BME280;20865;43.312;27.152;2023-09-08T03:01:41;100836.38;;;25.46;36.10
34658;BME280;20865;43.312;27.152;2023-09-08T03:04:08;100833.15;;;25.40;36.40
34658;BME280;20865;43.312;27.152;2023-09-08T03:06:36;100828.19;;;25.40;36.54
34658;BME280;20865;43.312;27.152;2023-09-08T03:09:04;100820.73;;;25.42;36.26
34658;BME280;20865;43.312;27.152;2023-09-08T03:11:31;100803.83;;;25.37;36.12
34658;BME280;20865;43.312;27.152;2023-09-08T03:13:59;100809.55;;;25.34;36.24
34658;BME280;20865;43.312;27.152;2023-09-08T03:16:27;100827.22;;;25.30;36.99
34658;BME280;20865;43.312;27.152;2023-09-08T03:18:54;100810.41;;;25.34;36.93
34658;BME280;20865;43.312;27.152;2023-09-08T03:21:22;100808.44;;;25.36;36.57
34658;BME280;20865;43.312;27.152;2023-09-08T03:23:51;100815.12;;;25.38;36.77
34658;BME280;20865;43.312;27.152;2023-09-08T03:26:19;100808.69;;;25.39;36.72
34658;BME280;20865;43.312;27.152;2023-09-08T03:28:46;100823.33;;;25.38;36.61
34658;BME280;20865;43.312;27.152;2023-09-08T03:31:14;100810.41;;;25.34;36.71
34658;BME280;20865;43.312;27.152;2023-09-08T03:33:41;100804.73;;;25.32;36.76
34658;BME280;20865;43.312;27.152;2023-09-08T03:36:09;100815.41;;;25.29;36.80
34658;BME280;20865;43.312;27.152;2023-09-08T03:38:37;100816.03;;;25.27;36.96
34658;BME280;20865;43.312;27.152;2023-09-08T03:41:05;100811.57;;;25.26;36.93
34658;BME280;20865;43.312;27.152;2023-09-08T03:43:33;100813.83;;;25.21;37.02
34658;BME280;20865;43.312;27.152;2023-09-08T03:46:01;100808.11;;;25.18;36.97
34658;BME280;20865;43.312;27.152;2023-09-08T03:48:28;100808.22;;;25.17;36.88
34658;BME280;20865;43.312;27.152;2023-09-08T03:50:56;100813.22;;;25.12;36.94
34658;BME280;20865;43.312;27.152;2023-09-08T03:53:23;100817.90;;;25.10;36.63
34658;BME280;20865;43.312;27.152;2023-09-08T03:55:51;100828.83;;;25.10;36.52
34658;BME280;20865;43.312;27.152;2023-09-08T03:58:19;100829.08;;;25.07;36.26
34658;BME280;20865;43.312;27.152;2023-09-08T04:00:46;100840.30;;;25.04;36.25
34658;BME280;20865;43.312;27.152;2023-09-08T04:03:14;100837.67;;;25.02;36.17
34658;BME280;20865;43.312;27.152;2023-09-08T04:05:41;100842.41;;;25.00;36.24
34658;BME280;20865;43.312;27.152;2023-09-08T04:08:09;100847.98;;;24.99;36.33
34658;BME280;20865;43.312;27.152;2023-09-08T04:10:36;100850.72;;;24.99;36.32
34658;BME280;20865;43.312;27.152;2023-09-08T04:13:05;100854.81;;;24.93;36.49
34658;BME280;20865;43.312;27.152;2023-09-08T04:15:32;100848.26;;;24.90;36.47
34658;BME280;20865;43.312;27.152;2023-09-08T04:18:00;100848.39;;;24.83;36.72
34658;BME280;20865;43.312;27.152;2023-09-08T04:20:28;100854.47;;;24.86;36.99
34658;BME280;20865;43.312;27.152;2023-09-08T04:22:56;100847.74;;;24.85;37.41
34658;BME280;20865;43.312;27.152;2023-09-08T04:25:24;100856.19;;;24.82;37.71
34658;BME280;20865;43.312;27.152;2023-09-08T04:27:51;100854.82;;;24.82;37.99
34658;BME280;20865;43.312;27.152;2023-09-08T04:30:19;100859.78;;;24.82;38.13
34658;BME280;20865;43.312;27.152;2023-09-08T04:32:47;100861.03;;;24.78;38.22
34658;BME280;20865;43.312;27.152;2023-09-08T04:35:15;100872.23;;;24.86;38.18
34658;BME280;20865;43.312;27.152;2023-09-08T04:37:43;100871.84;;;24.91;38.19
34658;BME280;20865;43.312;27.152;2023-09-08T04:40:11;100868.22;;;24.96;38.22
34658;BME280;20865;43.312;27.152;2023-09-08T04:42:38;100875.33;;;25.04;38.25
34658;BME280;20865;43.312;27.152;2023-09-08T04:45:06;100876.95;;;25.12;38.47
34658;BME280;20865;43.312;27.152;2023-09-08T04:47:34;100884.91;;;25.21;38.23
34658;BME280;20865;43.312;27.152;2023-09-08T04:50:02;100887.98;;;25.33;38.38
34658;BME280;20865;43.312;27.152;2023-09-08T04:52:30;100886.47;;;25.46;38.13
34658;BME280;20865;43.312;27.152;2023-09-08T04:54:57;100881.33;;;25.58;38.03
34658;BME280;20865;43.312;27.152;2023-09-08T04:57:25;100876.31;;;25.69;37.83
34658;BME280;20865;43.312;27.152;2023-09-08T04:59:52;100881.04;;;25.84;37.92
34658;BME280;20865;43.312;27.152;2023-09-08T05:02:20;100881.23;;;25.98;37.85
34658;BME280;20865;43.312;27.152;2023-09-08T05:04:47;100878.89;;;26.14;37.91
34658;BME280;20865;43.312;27.152;2023-09-08T05:07:15;100877.94;;;26.30;37.75
34658;BME280;20865;43.312;27.152;2023-09-08T05:09:44;100882.83;;;26.42;37.37
34658;BME280;20865;43.312;27.152;2023-09-08T05:12:12;100877.69;;;26.70;37.01
34658;BME280;20865;43.312;27.152;2023-09-08T05:14:40;100877.69;;;26.70;37.01
34658;BME280;20865;43.312;27.152;2023-09-08T05:17:07;100879.20;;;26.83;37.09
34658;BME280;20865;43.312;27.152;2023-09-08T05:19:35;100874.95;;;27.00;37.09
34658;BME280;20865;43.312;27.152;2023-09-08T05:22:05;100873.10;;;27.16;37.00
34658;BME280;20865;43.312;27.152;2023-09-08T05:24:36;100878.55;;;27.31;36.83
34658;BME280;20865;43.312;27.152;2023-09-08T05:27:04;100868.77;;;27.48;36.57
34658;BME280;20865;43.312;27.152;2023-09-08T05:29:32;100868.58;;;27.65;36.66
34658;BME280;20865;43.312;27.152;2023-09-08T05:31:59;100880.45;;;27.85;36.44
34658;BME280;20865;43.312;27.152;2023-09-08T05:34:27;100869.31;;;28.06;36.13
34658;BME280;20865;43.312;27.152;2023-09-08T05:36:54;100877.39;;;28.27;35.84
34658;BME280;20865;43.312;27.152;2023-09-08T05:39:22;100878.09;;;28.48;35.60
34658;BME280;20865;43.312;27.152;2023-09-08T05:41:50;100880.16;;;28.70;35.30
34658;BME280;20865;43.312;27.152;2023-09-08T05:44:17;100874.27;;;28.92;35.13
34658;BME280;20865;43.312;27.152;2023-09-08T05:46:45;100876.52;;;29.16;34.74
34658;BME280;20865;43.312;27.152;2023-09-08T05:49:12;100871.09;;;29.38;34.59
34658;BME280;20865;43.312;27.152;2023-09-08T05:51:40;100865.55;;;29.62;34.30
34658;BME280;20865;43.312;27.152;2023-09-08T05:54:08;100869.88;;;29.82;33.96
34658;BME280;20865;43.312;27.152;2023-09-08T05:56:37;100874.55;;;30.04;34.02
34658;BME280;20865;43.312;27.152;2023-09-08T05:59:05;100872.20;;;30.27;33.51
34658;BME280;20865;43.312;27.152;2023-09-08T06:01:32;100874.05;;;30.44;33.19
34658;BME280;20865;43.312;27.152;2023-09-08T06:04:00;100872.62;;;30.62;32.91
34658;BME280;20865;43.312;27.152;2023-09-08T06:06:28;100873.72;;;30.73;33.03
34658;BME280;20865;43.312;27.152;2023-09-08T06:08:55;100869.19;;;30.90;32.82
34658;BME280;20865;43.312;27.152;2023-09-08T06:11:23;100864.25;;;31.06;33.07
34658;BME280;20865;43.312;27.152;2023-09-08T06:13:50;100867.27;;;31.21;32.51
34658;BME280;20865;43.312;27.152;2023-09-08T06:16:20;100877.50;;;31.33;31.95
34658;BME280;20865;43.312;27.152;2023-09-08T06:18:47;100876.86;;;31.51;31.98
34658;BME280;20865;43.312;27.152;2023-09-08T06:21:15;100870.00;;;31.63;31.71
34658;BME280;20865;43.312;27.152;2023-09-08T06:23:42;100871.75;;;31.85;32.30
34658;BME280;20865;43.312;27.152;2023-09-08T06:26:10;100867.83;;;31.95;32.48
34658;BME280;20865;43.312;27.152;2023-09-08T06:28:37;100871.61;;;32.11;32.68
34658;BME280;20865;43.312;27.152;2023-09-08T06:31:07;100861.61;;;32.26;32.75
34658;BME280;20865;43.312;27.152;2023-09-08T06:33:35;100875.44;;;32.26;33.03
34658;BME280;20865;43.312;27.152;2023-09-08T06:36:02;100868.67;;;32.24;34.04
34658;BME280;20865;43.312;27.152;2023-09-08T06:38:30;100875.25;;;32.03;35.84
34658;BME280;20865;43.312;27.152;2023-09-08T06:40:58;100880.26;;;31.95;35.48
34658;BME280;20865;43.312;27.152;2023-09-08T06:43:27;100878.88;;;31.91;36.50
34658;BME280;20865;43.312;27.152;2023-09-08T06:45:55;100881.27;;;31.90;36.87
34658;BME280;20865;43.312;27.152;2023-09-08T06:48:22;100882.31;;;31.89;37.16
34658;BME280;20865;43.312;27.152;2023-09-08T06:50:54;100885.59;;;31.97;37.26
34658;BME280;20865;43.312;27.152;2023-09-08T06:53:23;100891.48;;;32.10;37.34
34658;BME280;20865;43.312;27.152;2023-09-08T06:55:51;100889.75;;;32.21;36.95
34658;BME280;20865;43.312;27.152;2023-09-08T06:58:18;100891.48;;;32.26;36.52
34658;BME280;20865;43.312;27.152;2023-09-08T07:00:46;100891.48;;;32.31;36.61
34658;BME280;20865;43.312;27.152;2023-09-08T07:03:15;100891.48;;;32.31;36.61
34658;BME280;20865;43.312;27.152;2023-09-08T07:05:43;100900.12;;;32.28;36.80
34658;BME280;20865;43.312;27.152;2023-09-08T07:08:12;100897.89;;;32.19;36.28
34658;BME280;20865;43.312;27.152;2023-09-08T07:10:39;100895.10;;;32.11;36.57
34658;BME280;20865;43.312;27.152;2023-09-08T07:13:07;100898.39;;;32.06;36.28
34658;BME280;20865;43.312;27.152;2023-09-08T07:15:34;100897.53;;;32.06;36.67
34658;BME280;20865;43.312;27.152;2023-09-08T07:18:02;100888.53;;;32.08;36.48
34658;BME280;20865;43.312;27.152;2023-09-08T07:20:30;100896.83;;;32.03;36.68
34658;BME280;20865;43.312;27.152;2023-09-08T07:22:57;100889.92;;;31.99;37.34
34658;BME280;20865;43.312;27.152;2023-09-08T07:25:25;100897.34;;;32.03;36.98
34658;BME280;20865;43.312;27.152;2023-09-08T07:27:52;100895.62;;;32.14;36.79
34658;BME280;20865;43.312;27.152;2023-09-08T07:30:21;100891.81;;;32.11;37.07
34658;BME280;20865;43.312;27.152;2023-09-08T07:32:48;100885.09;;;32.10;37.07
34658;BME280;20865;43.312;27.152;2023-09-08T07:35:16;100895.96;;;32.11;37.06
34658;BME280;20865;43.312;27.152;2023-09-08T07:37:45;100884.24;;;32.05;37.17
34658;BME280;20865;43.312;27.152;2023-09-08T07:40:14;100888.14;;;31.86;35.31
34658;BME280;20865;43.312;27.152;2023-09-08T07:42:41;100881.98;;;31.92;34.99
34658;BME280;20865;43.312;27.152;2023-09-08T07:45:09;100882.09;;;31.78;34.91
34658;BME280;20865;43.312;27.152;2023-09-08T07:47:37;100897.28;;;31.78;34.79
34658;BME280;20865;43.312;27.152;2023-09-08T07:50:21;100897.66;;;31.84;34.69
34658;BME280;20865;43.312;27.152;2023-09-08T07:52:50;100891.80;;;31.87;34.94
34658;BME280;20865;43.312;27.152;2023-09-08T07:55:18;100900.79;;;31.89;35.28
34658;BME280;20865;43.312;27.152;2023-09-08T07:57:49;100893.66;;;31.82;35.43
34658;BME280;20865;43.312;27.152;2023-09-08T08:00:17;100900.05;;;31.83;36.07
34658;BME280;20865;43.312;27.152;2023-09-08T08:02:49;100888.88;;;31.88;36.05
34658;BME280;20865;43.312;27.152;2023-09-08T08:05:17;100893.13;;;31.66;36.58
34658;BME280;20865;43.312;27.152;2023-09-08T08:07:45;100891.05;;;31.76;36.81
34658;BME280;20865;43.312;27.152;2023-09-08T08:10:13;100884.33;;;31.75;37.08
34658;BME280;20865;43.312;27.152;2023-09-08T08:12:41;100896.09;;;31.77;37.40
34658;BME280;20865;43.312;27.152;2023-09-08T08:15:09;100894.37;;;31.80;37.58
34658;BME280;20865;43.312;27.152;2023-09-08T08:17:38;100897.99;;;31.81;37.53
34658;BME280;20865;43.312;27.152;2023-09-08T08:20:07;100904.90;;;31.81;37.42
34658;BME280;20865;43.312;27.152;2023-09-08T08:22:36;100896.30;;;31.92;37.58
34658;BME280;20865;43.312;27.152;2023-09-08T08:25:05;100897.84;;;31.90;37.62
34658;BME280;20865;43.312;27.152;2023-09-08T08:27:32;100906.31;;;31.89;37.78
34658;BME280;20865;43.312;27.152;2023-09-08T08:30:00;100901.31;;;31.92;37.48
34658;BME280;20865;43.312;27.152;2023-09-08T08:32:28;100908.22;;;31.88;37.20
34658;BME280;20865;43.312;27.152;2023-09-08T08:34:56;100904.26;;;31.95;36.89
34658;BME280;20865;43.312;27.152;2023-09-08T08:37:23;100900.27;;;31.93;37.15
34658;BME280;20865;43.312;27.152;2023-09-08T08:39:52;100903.39;;;32.02;37.20
34658;BME280;20865;43.312;27.152;2023-09-08T08:42:20;100911.34;;;32.01;36.79
34658;BME280;20865;43.312;27.152;2023-09-08T08:44:49;100914.97;;;32.02;36.94
34658;BME280;20865;43.312;27.152;2023-09-08T08:47:17;100916.34;;;32.14;36.90
34658;BME280;20865;43.312;27.152;2023-09-08T08:49:46;100914.44;;;32.11;36.66
34658;BME280;20865;43.312;27.152;2023-09-08T08:52:15;100914.63;;;32.13;36.92
34658;BME280;20865;43.312;27.152;2023-09-08T08:54:45;100911.86;;;32.13;36.89
34658;BME280;20865;43.312;27.152;2023-09-08T08:57:13;100899.26;;;32.27;36.70
34658;BME280;20865;43.312;27.152;2023-09-08T08:59:41;100914.28;;;32.20;36.63
34658;BME280;20865;43.312;27.152;2023-09-08T09:02:10;100909.62;;;32.33;36.38
34658;BME280;20865;43.312;27.152;2023-09-08T09:04:38;100912.73;;;32.34;36.67
34658;BME280;20865;43.312;27.152;2023-09-08T09:07:07;100906.34;;;32.46;36.55
34658;BME280;20865;43.312;27.152;2023-09-08T09:09:35;100904.80;;;32.52;35.98
34658;BME280;20865;43.312;27.152;2023-09-08T09:12:03;100895.64;;;32.51;36.08
34658;BME280;20865;43.312;27.152;2023-09-08T09:14:34;100895.98;;;32.64;36.11
34658;BME280;20865;43.312;27.152;2023-09-08T09:17:02;100901.00;;;32.61;35.94
34658;BME280;20865;43.312;27.152;2023-09-08T09:19:31;100894.73;;;32.67;35.35
34658;BME280;20865;43.312;27.152;2023-09-08T09:22:00;100897.52;;;32.71;35.18
34658;BME280;20865;43.312;27.152;2023-09-08T09:24:35;100893.88;;;32.75;35.24
34658;BME280;20865;43.312;27.152;2023-09-08T09:27:08;100892.30;;;32.80;34.85
34658;BME280;20865;43.312;27.152;2023-09-08T09:29:46;100895.92;;;32.89;34.78
34658;BME280;20865;43.312;27.152;2023-09-08T09:32:15;100886.19;;;33.05;35.37
34658;BME280;20865;43.312;27.152;2023-09-08T09:34:51;100885.11;;;33.18;34.40
34658;BME280;20865;43.312;27.152;2023-09-08T09:37:23;100890.73;;;33.33;33.64
34658;BME280;20865;43.312;27.152;2023-09-08T09:39:53;100882.58;;;33.40;34.27
34658;BME280;20865;43.312;27.152;2023-09-08T09:42:21;100876.68;;;33.43;33.37
34658;BME280;20865;43.312;27.152;2023-09-08T09:44:51;100879.45;;;33.43;33.47
34658;BME280;20865;43.312;27.152;2023-09-08T09:47:19;100878.78;;;33.41;33.41
34658;BME280;20865;43.312;27.152;2023-09-08T09:49:49;100883.34;;;33.26;32.38
